sensor_id;sensor_type;location;lat;lon;timestamp;P1;durP1;ratioP1;P2;durP2;ratioP2
65656;SDS011;57397;50.096;14.404;2022-08-21T00:00:40;11.55;;;7.45;;
65656;SDS011;57397;50.096;14.404;2022-08-21T00:03:06;8.75;;;6.85;;
65656;SDS011;57397;50.096;14.404;2022-08-21T00:05:35;10.00;;;7.72;;
65656;SDS011;57397;50.096;14.404;2022-08-21T00:08:03;11.32;;;7.45;;
65656;SDS011;57397;50.096;14.404;2022-08-21T00:10:29;9.90;;;7.32;;
65656;SDS011;57397;50.096;14.404;2022-08-21T00:12:55;12.95;;;7.18;;
65656;SDS011;57397;50.096;14.404;2022-08-21T00:15:22;9.23;;;7.03;;
65656;SDS011;57397;50.096;14.404;2022-08-21T00:17:51;10.10;;;6.68;;
65656;SDS011;57397;50.096;14.404;2022-08-21T00:20:18;9.05;;;7.00;;
65656;SDS011;57397;50.096;14.404;2022-08-21T00:22:45;10.38;;;6.85;;
65656;SDS011;57397;50.096;14.404;2022-08-21T00:25:11;8.95;;;7.15;;
65656;SDS011;57397;50.096;14.404;2022-08-21T00:27:37;9.35;;;6.88;;
65656;SDS011;57397;50.096;14.404;2022-08-21T00:30:04;10.25;;;7.38;;
65656;SDS011;57397;50.096;14.404;2022-08-21T00:32:31;9.05;;;6.63;;
65656;SDS011;57397;50.096;14.404;2022-08-21T00:34:56;11.45;;;7.28;;
65656;SDS011;57397;50.096;14.404;2022-08-21T00:37:22;11.35;;;7.35;;
65656;SDS011;57397;50.096;14.404;2022-08-21T00:39:48;10.00;;;7.55;;
65656;SDS011;57397;50.096;14.404;2022-08-21T00:42:13;9.88;;;7.05;;
65656;SDS011;57397;50.096;14.404;2022-08-21T00:44:41;13.10;;;7.63;;
65656;SDS011;57397;50.096;14.404;2022-08-21T00:47:07;10.00;;;7.53;;
65656;SDS011;57397;50.096;14.404;2022-08-21T00:49:33;10.88;;;7.43;;
65656;SDS011;57397;50.096;14.404;2022-08-21T00:51:59;11.02;;;7.75;;
65656;SDS011;57397;50.096;14.404;2022-08-21T00:54:26;12.93;;;8.30;;
65656;SDS011;57397;50.096;14.404;2022-08-21T00:56:54;11.45;;;8.10;;
65656;SDS011;57397;50.096;14.404;2022-08-21T00:59:22;10.32;;;8.05;;
65656;SDS011;57397;50.096;14.404;2022-08-21T01:01:48;15.68;;;8.05;;
65656;SDS011;57397;50.096;14.404;2022-08-21T01:04:14;13.90;;;8.32;;
65656;SDS011;57397;50.096;14.404;2022-08-21T01:06:41;13.93;;;7.82;;
65656;SDS011;57397;50.096;14.404;2022-08-21T01:09:07;9.43;;;7.45;;
65656;SDS011;57397;50.096;14.404;2022-08-21T01:11:32;12.27;;;7.68;;
65656;SDS011;57397;50.096;14.404;2022-08-21T01:13:58;10.10;;;7.93;;
65656;SDS011;57397;50.096;14.404;2022-08-21T01:16:23;10.93;;;8.18;;
65656;SDS011;57397;50.096;14.404;2022-08-21T01:18:50;11.90;;;8.23;;
65656;SDS011;57397;50.096;14.404;2022-08-21T01:21:17;12.00;;;7.90;;
65656;SDS011;57397;50.096;14.404;2022-08-21T01:23:46;10.63;;;7.97;;
65656;SDS011;57397;50.096;14.404;2022-08-21T01:26:14;12.07;;;8.05;;
65656;SDS011;57397;50.096;14.404;2022-08-21T01:28:45;9.93;;;8.02;;
65656;SDS011;57397;50.096;14.404;2022-08-21T01:31:14;11.10;;;8.18;;
65656;SDS011;57397;50.096;14.404;2022-08-21T01:33:41;10.80;;;8.05;;
65656;SDS011;57397;50.096;14.404;2022-08-21T01:36:06;10.75;;;7.95;;
65656;SDS011;57397;50.096;14.404;2022-08-21T01:38:32;10.68;;;8.15;;
65656;SDS011;57397;50.096;14.404;2022-08-21T01:40:58;9.63;;;7.90;;
65656;SDS011;57397;50.096;14.404;2022-08-21T01:43:23;15.65;;;8.35;;
65656;SDS011;57397;50.096;14.404;2022-08-21T01:45:49;11.55;;;8.50;;
65656;SDS011;57397;50.096;14.404;2022-08-21T01:48:15;11.55;;;8.25;;
65656;SDS011;57397;50.096;14.404;2022-08-21T01:50:40;12.65;;;8.27;;
65656;SDS011;57397;50.096;14.404;2022-08-21T01:53:06;13.20;;;8.70;;
65656;SDS011;57397;50.096;14.404;2022-08-21T01:55:31;12.48;;;7.82;;
65656;SDS011;57397;50.096;14.404;2022-08-21T01:57:57;14.48;;;7.78;;
65656;SDS011;57397;50.096;14.404;2022-08-21T02:00:23;13.57;;;7.30;;
65656;SDS011;57397;50.096;14.404;2022-08-21T02:02:49;14.15;;;6.90;;
65656;SDS011;57397;50.096;14.404;2022-08-21T02:05:15;15.05;;;6.28;;
65656;SDS011;57397;50.096;14.404;2022-08-21T02:07:45;11.95;;;6.68;;
65656;SDS011;57397;50.096;14.404;2022-08-21T02:10:13;9.15;;;5.90;;
65656;SDS011;57397;50.096;14.404;2022-08-21T02:12:40;11.48;;;6.28;;
65656;SDS011;57397;50.096;14.404;2022-08-21T02:15:06;9.02;;;6.22;;
65656;SDS011;57397;50.096;14.404;2022-08-21T02:17:39;7.57;;;6.07;;
65656;SDS011;57397;50.096;14.404;2022-08-21T02:20:16;8.77;;;5.50;;
65656;SDS011;57397;50.096;14.404;2022-08-21T02:22:44;6.20;;;5.13;;
65656;SDS011;57397;50.096;14.404;2022-08-21T02:25:09;6.68;;;5.07;;
65656;SDS011;57397;50.096;14.404;2022-08-21T02:27:40;7.75;;;4.90;;
65656;SDS011;57397;50.096;14.404;2022-08-21T02:30:07;7.07;;;5.47;;
65656;SDS011;57397;50.096;14.404;2022-08-21T02:32:35;7.40;;;5.43;;
65656;SDS011;57397;50.096;14.404;2022-08-21T02:35:00;8.68;;;5.00;;
65656;SDS011;57397;50.096;14.404;2022-08-21T02:37:26;7.15;;;4.82;;
65656;SDS011;57397;50.096;14.404;2022-08-21T02:39:51;7.43;;;5.18;;
65656;SDS011;57397;50.096;14.404;2022-08-21T02:42:17;6.90;;;5.10;;
65656;SDS011;57397;50.096;14.404;2022-08-21T02:44:42;6.82;;;5.28;;
65656;SDS011;57397;50.096;14.404;2022-08-21T02:47:08;5.78;;;4.68;;
65656;SDS011;57397;50.096;14.404;2022-08-21T02:49:33;6.15;;;4.43;;
65656;SDS011;57397;50.096;14.404;2022-08-21T02:51:59;8.68;;;5.18;;
65656;SDS011;57397;50.096;14.404;2022-08-21T02:54:24;10.45;;;5.25;;
65656;SDS011;57397;50.096;14.404;2022-08-21T02:56:50;9.05;;;4.85;;
65656;SDS011;57397;50.096;14.404;2022-08-21T02:59:15;9.05;;;4.40;;
65656;SDS011;57397;50.096;14.404;2022-08-21T03:01:40;10.80;;;4.60;;
65656;SDS011;57397;50.096;14.404;2022-08-21T03:04:06;9.57;;;4.63;;
65656;SDS011;57397;50.096;14.404;2022-08-21T03:06:31;10.07;;;4.80;;
65656;SDS011;57397;50.096;14.404;2022-08-21T03:08:57;5.55;;;4.93;;
65656;SDS011;57397;50.096;14.404;2022-08-21T03:11:23;5.43;;;4.85;;
65656;SDS011;57397;50.096;14.404;2022-08-21T03:13:48;7.65;;;4.50;;
65656;SDS011;57397;50.096;14.404;2022-08-21T03:16:13;5.90;;;4.53;;
65656;SDS011;57397;50.096;14.404;2022-08-21T03:18:39;6.18;;;4.78;;
65656;SDS011;57397;50.096;14.404;2022-08-21T03:21:05;7.60;;;4.60;;
65656;SDS011;57397;50.096;14.404;2022-08-21T03:23:31;6.82;;;4.30;;
65656;SDS011;57397;50.096;14.404;2022-08-21T03:25:57;6.85;;;4.53;;
65656;SDS011;57397;50.096;14.404;2022-08-21T03:28:23;5.90;;;4.45;;
65656;SDS011;57397;50.096;14.404;2022-08-21T03:30:49;5.65;;;4.43;;
65656;SDS011;57397;50.096;14.404;2022-08-21T03:33:16;6.20;;;4.10;;
65656;SDS011;57397;50.096;14.404;2022-08-21T03:35:42;5.93;;;4.70;;
65656;SDS011;57397;50.096;14.404;2022-08-21T03:38:09;7.28;;;4.40;;
65656;SDS011;57397;50.096;14.404;2022-08-21T03:40:35;6.47;;;4.40;;
65656;SDS011;57397;50.096;14.404;2022-08-21T03:43:01;6.40;;;4.30;;
65656;SDS011;57397;50.096;14.404;2022-08-21T03:45:27;5.68;;;4.10;;
65656;SDS011;57397;50.096;14.404;2022-08-21T03:47:55;7.75;;;4.40;;
65656;SDS011;57397;50.096;14.404;2022-08-21T03:50:26;6.97;;;4.55;;
65656;SDS011;57397;50.096;14.404;2022-08-21T03:52:54;5.40;;;4.18;;
65656;SDS011;57397;50.096;14.404;2022-08-21T03:55:19;6.10;;;4.20;;
65656;SDS011;57397;50.096;14.404;2022-08-21T03:57:45;4.80;;;4.13;;
65656;SDS011;57397;50.096;14.404;2022-08-21T04:00:11;6.07;;;4.18;;
65656;SDS011;57397;50.096;14.404;2022-08-21T04:02:38;5.15;;;4.15;;
65656;SDS011;57397;50.096;14.404;2022-08-21T04:05:04;5.25;;;4.00;;
65656;SDS011;57397;50.096;14.404;2022-08-21T04:07:30;5.78;;;4.28;;
65656;SDS011;57397;50.096;14.404;2022-08-21T04:09:56;4.60;;;4.03;;
65656;SDS011;57397;50.096;14.404;2022-08-21T04:12:21;6.05;;;4.28;;
65656;SDS011;57397;50.096;14.404;2022-08-21T04:14:47;5.28;;;4.32;;
65656;SDS011;57397;50.096;14.404;2022-08-21T04:17:13;6.43;;;4.15;;
65656;SDS011;57397;50.096;14.404;2022-08-21T04:19:38;4.47;;;3.97;;
65656;SDS011;57397;50.096;14.404;2022-08-21T04:22:04;4.60;;;3.92;;
65656;SDS011;57397;50.096;14.404;2022-08-21T04:24:29;4.60;;;4.03;;
65656;SDS011;57397;50.096;14.404;2022-08-21T04:26:55;6.72;;;4.03;;
65656;SDS011;57397;50.096;14.404;2022-08-21T04:29:20;5.55;;;3.97;;
65656;SDS011;57397;50.096;14.404;2022-08-21T04:31:46;5.82;;;4.03;;
65656;SDS011;57397;50.096;14.404;2022-08-21T04:34:11;8.25;;;4.20;;
65656;SDS011;57397;50.096;14.404;2022-08-21T04:36:37;5.40;;;3.95;;
65656;SDS011;57397;50.096;14.404;2022-08-21T04:39:02;5.38;;;4.07;;
65656;SDS011;57397;50.096;14.404;2022-08-21T04:41:28;5.75;;;4.00;;
65656;SDS011;57397;50.096;14.404;2022-08-21T04:43:54;4.38;;;3.67;;
65656;SDS011;57397;50.096;14.404;2022-08-21T04:46:20;4.68;;;4.13;;
65656;SDS011;57397;50.096;14.404;2022-08-21T04:48:46;5.68;;;3.80;;
65656;SDS011;57397;50.096;14.404;2022-08-21T04:51:13;5.45;;;3.83;;
65656;SDS011;57397;50.096;14.404;2022-08-21T04:54:00;3.90;;;3.50;;
65656;SDS011;57397;50.096;14.404;2022-08-21T04:56:31;4.43;;;3.78;;
65656;SDS011;57397;50.096;14.404;2022-08-21T04:59:01;4.47;;;3.40;;
65656;SDS011;57397;50.096;14.404;2022-08-21T05:01:30;6.40;;;4.20;;
65656;SDS011;57397;50.096;14.404;2022-08-21T05:03:59;4.68;;;3.70;;
65656;SDS011;57397;50.096;14.404;2022-08-21T05:06:26;5.00;;;3.72;;
65656;SDS011;57397;50.096;14.404;2022-08-21T05:08:54;5.93;;;3.67;;
65656;SDS011;57397;50.096;14.404;2022-08-21T05:11:21;5.22;;;3.95;;
65656;SDS011;57397;50.096;14.404;2022-08-21T05:13:47;5.60;;;4.00;;
65656;SDS011;57397;50.096;14.404;2022-08-21T05:16:13;7.15;;;3.85;;
65656;SDS011;57397;50.096;14.404;2022-08-21T05:18:38;4.82;;;3.63;;
65656;SDS011;57397;50.096;14.404;2022-08-21T05:21:04;5.38;;;4.20;;
65656;SDS011;57397;50.096;14.404;2022-08-21T05:23:29;8.55;;;4.15;;
65656;SDS011;57397;50.096;14.404;2022-08-21T05:25:55;6.45;;;3.85;;
65656;SDS011;57397;50.096;14.404;2022-08-21T05:28:21;5.22;;;3.80;;
65656;SDS011;57397;50.096;14.404;2022-08-21T05:30:46;7.85;;;4.07;;
65656;SDS011;57397;50.096;14.404;2022-08-21T05:33:12;4.65;;;3.55;;
65656;SDS011;57397;50.096;14.404;2022-08-21T05:35:38;4.95;;;4.00;;
65656;SDS011;57397;50.096;14.404;2022-08-21T05:38:04;4.97;;;4.07;;
65656;SDS011;57397;50.096;14.404;2022-08-21T05:40:30;5.57;;;3.92;;
65656;SDS011;57397;50.096;14.404;2022-08-21T05:42:56;5.72;;;3.83;;
65656;SDS011;57397;50.096;14.404;2022-08-21T05:45:24;5.30;;;4.07;;
65656;SDS011;57397;50.096;14.404;2022-08-21T05:47:54;5.95;;;4.10;;
65656;SDS011;57397;50.096;14.404;2022-08-21T05:50:19;6.45;;;3.88;;
65656;SDS011;57397;50.096;14.404;2022-08-21T05:52:45;4.65;;;4.03;;
65656;SDS011;57397;50.096;14.404;2022-08-21T05:55:10;5.00;;;4.10;;
65656;SDS011;57397;50.096;14.404;2022-08-21T05:57:39;5.85;;;3.90;;
65656;SDS011;57397;50.096;14.404;2022-08-21T06:00:07;6.68;;;3.83;;
65656;SDS011;57397;50.096;14.404;2022-08-21T06:02:37;5.38;;;4.05;;
65656;SDS011;57397;50.096;14.404;2022-08-21T06:05:02;4.95;;;3.83;;
65656;SDS011;57397;50.096;14.404;2022-08-21T06:07:28;5.53;;;3.72;;
65656;SDS011;57397;50.096;14.404;2022-08-21T06:09:54;5.68;;;3.95;;
65656;SDS011;57397;50.096;14.404;2022-08-21T06:12:19;6.97;;;3.95;;
65656;SDS011;57397;50.096;14.404;2022-08-21T06:14:44;6.22;;;3.70;;
65656;SDS011;57397;50.096;14.404;2022-08-21T06:17:11;7.20;;;3.80;;
65656;SDS011;57397;50.096;14.404;2022-08-21T06:19:37;4.70;;;3.67;;
65656;SDS011;57397;50.096;14.404;2022-08-21T06:22:03;4.28;;;3.58;;
65656;SDS011;57397;50.096;14.404;2022-08-21T06:24:29;4.65;;;3.20;;
65656;SDS011;57397;50.096;14.404;2022-08-21T06:26:55;3.65;;;3.35;;
65656;SDS011;57397;50.096;14.404;2022-08-21T06:29:21;4.38;;;3.42;;
65656;SDS011;57397;50.096;14.404;2022-08-21T06:31:47;3.97;;;3.58;;
65656;SDS011;57397;50.096;14.404;2022-08-21T06:34:14;3.65;;;3.28;;
65656;SDS011;57397;50.096;14.404;2022-08-21T06:36:40;4.85;;;3.58;;
65656;SDS011;57397;50.096;14.404;2022-08-21T06:39:05;6.30;;;3.50;;
65656;SDS011;57397;50.096;14.404;2022-08-21T06:41:31;3.80;;;3.22;;
65656;SDS011;57397;50.096;14.404;2022-08-21T06:43:57;3.65;;;3.22;;
65656;SDS011;57397;50.096;14.404;2022-08-21T06:46:23;4.97;;;3.33;;
65656;SDS011;57397;50.096;14.404;2022-08-21T06:48:50;4.07;;;3.40;;
65656;SDS011;57397;50.096;14.404;2022-08-21T06:51:20;5.78;;;3.30;;
65656;SDS011;57397;50.096;14.404;2022-08-21T06:53:45;3.65;;;3.25;;
65656;SDS011;57397;50.096;14.404;2022-08-21T06:56:11;3.40;;;3.10;;
65656;SDS011;57397;50.096;14.404;2022-08-21T06:58:36;4.28;;;3.05;;
65656;SDS011;57397;50.096;14.404;2022-08-21T07:01:02;3.70;;;3.28;;
65656;SDS011;57397;50.096;14.404;2022-08-21T07:03:33;3.65;;;3.13;;
65656;SDS011;57397;50.096;14.404;2022-08-21T07:06:03;4.68;;;3.03;;
65656;SDS011;57397;50.096;14.404;2022-08-21T07:08:32;4.28;;;3.03;;
65656;SDS011;57397;50.096;14.404;2022-08-21T07:10:58;3.35;;;3.05;;
65656;SDS011;57397;50.096;14.404;2022-08-21T07:13:25;3.80;;;3.03;;
65656;SDS011;57397;50.096;14.404;2022-08-21T07:15:51;3.50;;;3.20;;
65656;SDS011;57397;50.096;14.404;2022-08-21T07:18:16;4.28;;;2.60;;
65656;SDS011;57397;50.096;14.404;2022-08-21T07:20:42;3.72;;;2.80;;
65656;SDS011;57397;50.096;14.404;2022-08-21T07:23:09;3.50;;;3.20;;
65656;SDS011;57397;50.096;14.404;2022-08-21T07:25:38;3.63;;;2.88;;
65656;SDS011;57397;50.096;14.404;2022-08-21T07:28:04;3.10;;;2.60;;
65656;SDS011;57397;50.096;14.404;2022-08-21T07:30:29;5.85;;;2.95;;
65656;SDS011;57397;50.096;14.404;2022-08-21T07:32:55;3.72;;;3.05;;
65656;SDS011;57397;50.096;14.404;2022-08-21T07:35:21;3.13;;;2.60;;
65656;SDS011;57397;50.096;14.404;2022-08-21T07:37:48;3.60;;;2.67;;
65656;SDS011;57397;50.096;14.404;2022-08-21T07:40:13;3.15;;;2.70;;
65656;SDS011;57397;50.096;14.404;2022-08-21T07:42:40;3.63;;;3.03;;
65656;SDS011;57397;50.096;14.404;2022-08-21T07:45:07;3.85;;;2.67;;
65656;SDS011;57397;50.096;14.404;2022-08-21T07:47:33;3.47;;;2.67;;
65656;SDS011;57397;50.096;14.404;2022-08-21T07:49:59;3.08;;;2.78;;
65656;SDS011;57397;50.096;14.404;2022-08-21T07:52:24;2.90;;;2.60;;
65656;SDS011;57397;50.096;14.404;2022-08-21T07:54:49;3.20;;;2.50;;
65656;SDS011;57397;50.096;14.404;2022-08-21T07:57:16;2.83;;;2.60;;
65656;SDS011;57397;50.096;14.404;2022-08-21T07:59:42;2.88;;;2.50;;
65656;SDS011;57397;50.096;14.404;2022-08-21T08:02:07;2.90;;;2.60;;
65656;SDS011;57397;50.096;14.404;2022-08-21T08:04:33;2.92;;;2.40;;
65656;SDS011;57397;50.096;14.404;2022-08-21T08:06:58;3.88;;;2.75;;
65656;SDS011;57397;50.096;14.404;2022-08-21T08:09:24;3.47;;;2.60;;
65656;SDS011;57397;50.096;14.404;2022-08-21T08:11:49;5.97;;;2.65;;
65656;SDS011;57397;50.096;14.404;2022-08-21T08:14:15;3.30;;;2.45;;
65656;SDS011;57397;50.096;14.404;2022-08-21T08:16:40;2.92;;;2.60;;
65656;SDS011;57397;50.096;14.404;2022-08-21T08:19:06;2.70;;;2.47;;
65656;SDS011;57397;50.096;14.404;2022-08-21T08:21:34;4.00;;;2.42;;
65656;SDS011;57397;50.096;14.404;2022-08-21T08:24:01;2.92;;;2.63;;
65656;SDS011;57397;50.096;14.404;2022-08-21T08:26:27;3.28;;;2.60;;
65656;SDS011;57397;50.096;14.404;2022-08-21T08:28:52;2.90;;;2.55;;
65656;SDS011;57397;50.096;14.404;2022-08-21T08:31:18;4.07;;;2.35;;
65656;SDS011;57397;50.096;14.404;2022-08-21T08:33:43;3.00;;;2.70;;
65656;SDS011;57397;50.096;14.404;2022-08-21T08:36:13;3.42;;;2.60;;
65656;SDS011;57397;50.096;14.404;2022-08-21T08:38:40;3.92;;;2.53;;
65656;SDS011;57397;50.096;14.404;2022-08-21T08:41:10;2.83;;;2.42;;
65656;SDS011;57397;50.096;14.404;2022-08-21T08:43:38;2.80;;;2.50;;
65656;SDS011;57397;50.096;14.404;2022-08-21T08:46:06;3.85;;;2.67;;
65656;SDS011;57397;50.096;14.404;2022-08-21T08:48:52;3.92;;;2.50;;
65656;SDS011;57397;50.096;14.404;2022-08-21T08:51:24;3.47;;;2.28;;
65656;SDS011;57397;50.096;14.404;2022-08-21T08:53:55;3.55;;;2.75;;
65656;SDS011;57397;50.096;14.404;2022-08-21T08:56:27;4.18;;;2.60;;
65656;SDS011;57397;50.096;14.404;2022-08-21T08:58:56;2.85;;;2.28;;
65656;SDS011;57397;50.096;14.404;2022-08-21T09:01:26;3.08;;;2.20;;
65656;SDS011;57397;50.096;14.404;2022-08-21T09:03:51;3.10;;;2.30;;
65656;SDS011;57397;50.096;14.404;2022-08-21T09:07:20;3.05;;;2.05;;
65656;SDS011;57397;50.096;14.404;2022-08-21T09:12:47;2.80;;;2.50;;
65656;SDS011;57397;50.096;14.404;2022-08-21T09:23:40;2.88;;;2.20;;
65656;SDS011;57397;50.096;14.404;2022-08-21T09:26:13;3.22;;;2.30;;
65656;SDS011;57397;50.096;14.404;2022-08-21T09:28:43;3.20;;;2.30;;
65656;SDS011;57397;50.096;14.404;2022-08-21T09:31:42;2.50;;;2.13;;
65656;SDS011;57397;50.096;14.404;2022-08-21T09:34:05;2.78;;;2.40;;
65656;SDS011;57397;50.096;14.404;2022-08-21T09:36:43;2.67;;;2.20;;
65656;SDS011;57397;50.096;14.404;2022-08-21T09:39:11;2.53;;;2.00;;
65656;SDS011;57397;50.096;14.404;2022-08-21T09:41:38;2.38;;;2.15;;
65656;SDS011;57397;50.096;14.404;2022-08-21T09:44:04;2.40;;;2.20;;
65656;SDS011;57397;50.096;14.404;2022-08-21T09:46:31;2.40;;;2.20;;
65656;SDS011;57397;50.096;14.404;2022-08-21T09:48:58;4.03;;;2.58;;
65656;SDS011;57397;50.096;14.404;2022-08-21T09:51:31;3.00;;;2.15;;
65656;SDS011;57397;50.096;14.404;2022-08-21T09:54:10;2.78;;;2.13;;
65656;SDS011;57397;50.096;14.404;2022-08-21T09:56:50;2.90;;;2.40;;
65656;SDS011;57397;50.096;14.404;2022-08-21T09:59:35;2.55;;;2.22;;
65656;SDS011;57397;50.096;14.404;2022-08-21T10:02:07;3.58;;;2.20;;
65656;SDS011;57397;50.096;14.404;2022-08-21T10:04:49;3.38;;;2.22;;
65656;SDS011;57397;50.096;14.404;2022-08-21T10:07:30;2.85;;;2.08;;
65656;SDS011;57397;50.096;14.404;2022-08-21T10:10:00;2.30;;;2.10;;
65656;SDS011;57397;50.096;14.404;2022-08-21T10:18:01;2.85;;;2.15;;
65656;SDS011;57397;50.096;14.404;2022-08-21T10:20:46;4.40;;;2.60;;
65656;SDS011;57397;50.096;14.404;2022-08-21T10:26:08;2.22;;;2.03;;
65656;SDS011;57397;50.096;14.404;2022-08-21T10:31:44;3.00;;;2.20;;
65656;SDS011;57397;50.096;14.404;2022-08-21T10:45:38;2.85;;;2.38;;
65656;SDS011;57397;50.096;14.404;2022-08-21T10:51:04;2.78;;;2.25;;
65656;SDS011;57397;50.096;14.404;2022-08-21T10:56:22;2.60;;;2.25;;
65656;SDS011;57397;50.096;14.404;2022-08-21T10:58:59;2.50;;;2.30;;
65656;SDS011;57397;50.096;14.404;2022-08-21T11:01:36;2.58;;;2.35;;
65656;SDS011;57397;50.096;14.404;2022-08-21T11:04:24;2.33;;;2.13;;
65656;SDS011;57397;50.096;14.404;2022-08-21T11:06:58;2.60;;;2.40;;
65656;SDS011;57397;50.096;14.404;2022-08-21T11:09:27;3.15;;;2.20;;
65656;SDS011;57397;50.096;14.404;2022-08-21T11:12:03;4.10;;;2.60;;
65656;SDS011;57397;50.096;14.404;2022-08-21T11:17:35;3.95;;;2.10;;
65656;SDS011;57397;50.096;14.404;2022-08-21T11:20:08;7.07;;;2.65;;
65656;SDS011;57397;50.096;14.404;2022-08-21T11:22:44;10.15;;;2.80;;
65656;SDS011;57397;50.096;14.404;2022-08-21T11:25:21;9.50;;;2.70;;
65656;SDS011;57397;50.096;14.404;2022-08-21T11:27:52;13.27;;;2.75;;
65656;SDS011;57397;50.096;14.404;2022-08-21T11:30:24;6.65;;;2.63;;
65656;SDS011;57397;50.096;14.404;2022-08-21T11:35:39;12.82;;;2.72;;
65656;SDS011;57397;50.096;14.404;2022-08-21T11:43:27;6.22;;;2.28;;
65656;SDS011;57397;50.096;14.404;2022-08-21T11:51:36;7.97;;;2.80;;
65656;SDS011;57397;50.096;14.404;2022-08-21T11:54:20;10.30;;;2.67;;
65656;SDS011;57397;50.096;14.404;2022-08-21T11:56:55;9.57;;;2.85;;
65656;SDS011;57397;50.096;14.404;2022-08-21T11:59:49;6.53;;;2.72;;
65656;SDS011;57397;50.096;14.404;2022-08-21T12:02:20;3.72;;;2.50;;
65656;SDS011;57397;50.096;14.404;2022-08-21T12:04:52;6.35;;;2.38;;
65656;SDS011;57397;50.096;14.404;2022-08-21T12:07:32;6.95;;;2.53;;
65656;SDS011;57397;50.096;14.404;2022-08-21T12:10:07;5.75;;;2.60;;
65656;SDS011;57397;50.096;14.404;2022-08-21T12:12:36;6.63;;;2.38;;
65656;SDS011;57397;50.096;14.404;2022-08-21T12:15:12;6.50;;;2.78;;
65656;SDS011;57397;50.096;14.404;2022-08-21T12:22:53;5.63;;;2.42;;
65656;SDS011;57397;50.096;14.404;2022-08-21T12:25:21;5.95;;;2.60;;
65656;SDS011;57397;50.096;14.404;2022-08-21T12:27:49;4.03;;;2.30;;
65656;SDS011;57397;50.096;14.404;2022-08-21T12:30:33;5.43;;;2.33;;
65656;SDS011;57397;50.096;14.404;2022-08-21T12:33:04;4.88;;;2.10;;
65656;SDS011;57397;50.096;14.404;2022-08-21T12:35:32;5.30;;;2.20;;
65656;SDS011;57397;50.096;14.404;2022-08-21T12:38:09;5.85;;;2.20;;
65656;SDS011;57397;50.096;14.404;2022-08-21T12:41:00;5.47;;;2.35;;
65656;SDS011;57397;50.096;14.404;2022-08-21T12:43:34;5.60;;;2.40;;
65656;SDS011;57397;50.096;14.404;2022-08-21T12:46:03;6.55;;;2.40;;
65656;SDS011;57397;50.096;14.404;2022-08-21T12:48:49;4.75;;;2.60;;
65656;SDS011;57397;50.096;14.404;2022-08-21T12:51:18;5.00;;;2.50;;
65656;SDS011;57397;50.096;14.404;2022-08-21T12:53:49;7.72;;;2.25;;
65656;SDS011;57397;50.096;14.404;2022-08-21T12:56:17;3.85;;;2.47;;
65656;SDS011;57397;50.096;14.404;2022-08-21T12:58:49;4.80;;;2.28;;
65656;SDS011;57397;50.096;14.404;2022-08-21T13:03:50;5.05;;;2.20;;
65656;SDS011;57397;50.096;14.404;2022-08-21T13:06:17;4.35;;;2.50;;
65656;SDS011;57397;50.096;14.404;2022-08-21T13:08:45;4.00;;;2.75;;
65656;SDS011;57397;50.096;14.404;2022-08-21T13:11:13;4.15;;;2.40;;
65656;SDS011;57397;50.096;14.404;2022-08-21T13:13:41;3.30;;;2.45;;
65656;SDS011;57397;50.096;14.404;2022-08-21T13:16:07;3.75;;;2.40;;
65656;SDS011;57397;50.096;14.404;2022-08-21T13:18:35;5.28;;;2.47;;
65656;SDS011;57397;50.096;14.404;2022-08-21T13:21:17;3.63;;;2.50;;
65656;SDS011;57397;50.096;14.404;2022-08-21T13:23:43;3.38;;;2.45;;
65656;SDS011;57397;50.096;14.404;2022-08-21T13:26:15;4.50;;;2.60;;
65656;SDS011;57397;50.096;14.404;2022-08-21T13:28:42;4.00;;;2.50;;
65656;SDS011;57397;50.096;14.404;2022-08-21T13:31:15;2.80;;;2.50;;
65656;SDS011;57397;50.096;14.404;2022-08-21T13:33:50;3.20;;;2.58;;
65656;SDS011;57397;50.096;14.404;2022-08-21T13:36:32;3.63;;;2.40;;
65656;SDS011;57397;50.096;14.404;2022-08-21T13:39:01;2.70;;;2.50;;
65656;SDS011;57397;50.096;14.404;2022-08-21T13:41:32;4.13;;;2.50;;
65656;SDS011;57397;50.096;14.404;2022-08-21T13:44:05;3.88;;;2.70;;
65656;SDS011;57397;50.096;14.404;2022-08-21T13:46:40;4.50;;;2.30;;
65656;SDS011;57397;50.096;14.404;2022-08-21T13:49:05;3.03;;;2.72;;
65656;SDS011;57397;50.096;14.404;2022-08-21T13:51:32;3.67;;;2.53;;
65656;SDS011;57397;50.096;14.404;2022-08-21T13:53:58;3.97;;;2.35;;
65656;SDS011;57397;50.096;14.404;2022-08-21T13:58:58;3.83;;;2.40;;
65656;SDS011;57397;50.096;14.404;2022-08-21T14:04:38;4.70;;;2.47;;
65656;SDS011;57397;50.096;14.404;2022-08-21T14:06:47;3.28;;;2.47;;
65656;SDS011;57397;50.096;14.404;2022-08-21T14:12:00;2.55;;;2.13;;
65656;SDS011;57397;50.096;14.404;2022-08-21T14:14:29;3.63;;;2.80;;
65656;SDS011;57397;50.096;14.404;2022-08-21T14:16:58;3.38;;;2.72;;
65656;SDS011;57397;50.096;14.404;2022-08-21T14:19:25;3.20;;;2.80;;
65656;SDS011;57397;50.096;14.404;2022-08-21T14:21:53;3.28;;;2.80;;
65656;SDS011;57397;50.096;14.404;2022-08-21T14:29:39;3.40;;;2.95;;
65656;SDS011;57397;50.096;14.404;2022-08-21T14:32:27;3.15;;;2.85;;
65656;SDS011;57397;50.096;14.404;2022-08-21T14:34:55;4.05;;;2.80;;
65656;SDS011;57397;50.096;14.404;2022-08-21T14:37:21;3.38;;;2.70;;
65656;SDS011;57397;50.096;14.404;2022-08-21T14:39:47;3.30;;;2.90;;
65656;SDS011;57397;50.096;14.404;2022-08-21T14:42:13;5.47;;;2.78;;
65656;SDS011;57397;50.096;14.404;2022-08-21T14:44:38;4.03;;;2.85;;
65656;SDS011;57397;50.096;14.404;2022-08-21T14:47:04;3.20;;;2.75;;
65656;SDS011;57397;50.096;14.404;2022-08-21T14:49:29;3.17;;;2.70;;
65656;SDS011;57397;50.096;14.404;2022-08-21T14:51:56;3.10;;;2.78;;
65656;SDS011;57397;50.096;14.404;2022-08-21T14:54:22;3.20;;;2.60;;
65656;SDS011;57397;50.096;14.404;2022-08-21T14:56:54;3.08;;;2.50;;
65656;SDS011;57397;50.096;14.404;2022-08-21T14:59:20;4.22;;;2.60;;
65656;SDS011;57397;50.096;14.404;2022-08-21T15:01:45;3.13;;;2.50;;
65656;SDS011;57397;50.096;14.404;2022-08-21T15:04:11;2.97;;;2.70;;
65656;SDS011;57397;50.096;14.404;2022-08-21T15:06:37;5.63;;;2.90;;
65656;SDS011;57397;50.096;14.404;2022-08-21T15:09:02;4.05;;;2.78;;
65656;SDS011;57397;50.096;14.404;2022-08-21T15:11:30;3.55;;;2.80;;
65656;SDS011;57397;50.096;14.404;2022-08-21T15:13:57;3.42;;;3.00;;
65656;SDS011;57397;50.096;14.404;2022-08-21T15:16:24;3.85;;;2.55;;
65656;SDS011;57397;50.096;14.404;2022-08-21T15:18:52;5.50;;;2.72;;
65656;SDS011;57397;50.096;14.404;2022-08-21T15:21:17;3.50;;;3.05;;
65656;SDS011;57397;50.096;14.404;2022-08-21T15:23:43;3.63;;;2.70;;
65656;SDS011;57397;50.096;14.404;2022-08-21T15:26:08;3.55;;;2.80;;
65656;SDS011;57397;50.096;14.404;2022-08-21T15:28:34;3.50;;;2.60;;
65656;SDS011;57397;50.096;14.404;2022-08-21T15:31:01;2.95;;;2.65;;
65656;SDS011;57397;50.096;14.404;2022-08-21T15:33:27;3.25;;;2.80;;
65656;SDS011;57397;50.096;14.404;2022-08-21T15:35:52;2.58;;;2.38;;
65656;SDS011;57397;50.096;14.404;2022-08-21T15:38:18;3.33;;;2.70;;
65656;SDS011;57397;50.096;14.404;2022-08-21T15:40:43;3.42;;;2.67;;
65656;SDS011;57397;50.096;14.404;2022-08-21T15:43:11;2.70;;;2.33;;
65656;SDS011;57397;50.096;14.404;2022-08-21T15:45:59;2.83;;;2.55;;
65656;SDS011;57397;50.096;14.404;2022-08-21T15:48:25;3.95;;;2.50;;
65656;SDS011;57397;50.096;14.404;2022-08-21T15:50:52;2.50;;;2.28;;
65656;SDS011;57397;50.096;14.404;2022-08-21T15:53:18;3.28;;;2.60;;
65656;SDS011;57397;50.096;14.404;2022-08-21T15:55:43;2.65;;;2.42;;
65656;SDS011;57397;50.096;14.404;2022-08-21T15:58:12;2.83;;;2.50;;